createdAt,value
2024-03-13T00:00:02.130Z,7.4
2024-03-13T00:01:02.069Z,7.4
2024-03-13T00:02:01.456Z,7.4
2024-03-13T00:03:01.437Z,7.4
2024-03-13T00:04:02.390Z,7.4
2024-03-13T00:05:03.050Z,7.4
2024-03-13T00:06:01.971Z,7.4
2024-03-13T00:07:02.203Z,7.3
2024-03-13T00:08:02.067Z,7.4
2024-03-13T00:09:02.076Z,7.4
2024-03-13T00:10:02.010Z,7.4
2024-03-13T00:11:02.487Z,7.5
2024-03-13T00:12:01.298Z,7.4
2024-03-13T00:13:01.376Z,7.4
2024-03-13T00:14:02.205Z,7.3
2024-03-13T00:15:02.067Z,7.3
2024-03-13T00:16:01.936Z,7.4
2024-03-13T00:17:01.929Z,7.4
2024-03-13T00:18:01.770Z,7.4
2024-03-13T00:19:02.001Z,7.4
2024-03-13T00:20:01.768Z,7.4
2024-03-13T00:21:01.938Z,7.4
2024-03-13T00:22:02.140Z,7.4
2024-03-13T00:23:01.920Z,7.4
2024-03-13T00:24:02.001Z,7.3
2024-03-13T00:25:02.095Z,7.4
2024-03-13T00:26:01.872Z,7.4
2024-03-13T00:27:01.857Z,7.3
2024-03-13T00:28:02.237Z,7.3
2024-03-13T00:29:02.089Z,7.3
2024-03-13T00:30:02.036Z,7.3
2024-03-13T00:31:02.088Z,7.3
2024-03-13T00:32:02.035Z,7.3
2024-03-13T00:33:02.319Z,7.2
2024-03-13T00:34:02.377Z,7.3
2024-03-13T00:35:02.247Z,7.2
2024-03-13T00:36:02.071Z,7.2
2024-03-13T00:37:02.009Z,7.3
2024-03-13T00:38:01.518Z,7.3
2024-03-13T00:39:01.919Z,7.3
2024-03-13T00:40:01.666Z,7.3
2024-03-13T00:41:01.718Z,7.3
2024-03-13T00:42:01.886Z,7.3
2024-03-13T00:43:01.543Z,7.3
2024-03-13T00:44:02.473Z,7.3
2024-03-13T00:45:02.243Z,7.3
2024-03-13T00:46:02.369Z,7.3
2024-03-13T00:47:01.880Z,7.3
2024-03-13T00:48:02.205Z,7.4
2024-03-13T00:49:02.086Z,7.3
2024-03-13T00:50:02.085Z,7.3
2024-03-13T00:51:02.460Z,7.3
2024-03-13T00:52:02.162Z,7.3
2024-03-13T00:53:02.568Z,7.3
2024-03-13T00:54:02.259Z,7.2
2024-03-13T00:55:02.412Z,7.3
2024-03-13T00:56:02.202Z,7.3
2024-03-13T00:57:02.344Z,7.3
2024-03-13T00:58:01.996Z,7.2
2024-03-13T00:59:02.624Z,7.3
2024-03-13T01:00:02.530Z,7.2
2024-03-13T01:01:01.751Z,7.2
2024-03-13T01:02:02.805Z,7.2
2024-03-13T01:03:01.575Z,7.3
2024-03-13T01:04:02.702Z,7.2
2024-03-13T01:05:01.508Z,7.2
2024-03-13T01:06:02.620Z,7.2
2024-03-13T01:07:01.305Z,7.2
2024-03-13T01:08:02.203Z,7.1
2024-03-13T01:09:02.018Z,7.2
2024-03-13T01:10:01.697Z,7.2
2024-03-13T01:11:01.825Z,7.1
2024-03-13T01:12:02.099Z,7.1
2024-03-13T01:13:01.881Z,7.1
2024-03-13T01:14:01.814Z,7.2
2024-03-13T01:15:01.614Z,7.3
2024-03-13T01:16:01.513Z,7.2
2024-03-13T01:17:01.399Z,7.2
2024-03-13T01:18:02.202Z,7.2
2024-03-13T01:19:02.067Z,7.3
2024-03-13T01:20:01.966Z,7.2
2024-03-13T01:21:01.674Z,7.2
2024-03-13T01:22:01.461Z,7.2
2024-03-13T01:23:01.341Z,7.1
2024-03-13T01:24:02.721Z,7.3
2024-03-13T01:25:01.404Z,7.2
2024-03-13T01:26:01.412Z,7.1
2024-03-13T01:27:01.386Z,7.2
2024-03-13T01:28:01.824Z,7.2
2024-03-13T01:29:01.593Z,7.2
2024-03-13T01:30:03.099Z,7.3
2024-03-13T01:31:01.808Z,7.3
2024-03-13T01:32:02.290Z,7.3
2024-03-13T01:33:01.817Z,7.3
2024-03-13T01:34:01.642Z,7.3
2024-03-13T01:35:01.751Z,7.3
2024-03-13T01:36:01.466Z,7.3
2024-03-13T01:37:01.667Z,7.3
2024-03-13T01:38:01.442Z,7.3
2024-03-13T01:39:01.875Z,7.3
2024-03-13T01:40:01.647Z,7.2
2024-03-13T01:41:01.721Z,7.2
2024-03-13T01:42:01.812Z,7.2
2024-03-13T01:43:01.553Z,7.2
2024-03-13T01:44:02.723Z,7.2
2024-03-13T01:45:01.346Z,7.2
2024-03-13T01:46:02.197Z,7.2
2024-03-13T01:47:02.267Z,7.3
2024-03-13T01:48:02.583Z,7.2
2024-03-13T01:49:01.424Z,7.2
2024-03-13T01:50:02.417Z,7.3
2024-03-13T01:51:02.198Z,7.2
2024-03-13T01:52:02.006Z,7.2
2024-03-13T01:53:02.007Z,7.2
2024-03-13T01:54:01.732Z,7.1
2024-03-13T01:55:02.197Z,7.2
2024-03-13T01:56:02.022Z,7.2
2024-03-13T01:57:02.042Z,7.3
2024-03-13T01:58:01.738Z,7.3
2024-03-13T01:59:01.755Z,7.3
2024-03-13T02:00:01.671Z,7.2
2024-03-13T02:01:01.755Z,7.2
2024-03-13T02:02:01.528Z,7.2
2024-03-13T02:03:01.723Z,7.2
2024-03-13T02:04:01.630Z,7.2
2024-03-13T02:05:01.532Z,7.2
2024-03-13T02:06:02.635Z,7.1
2024-03-13T02:07:01.448Z,7.2
2024-03-13T02:08:01.302Z,7.2
2024-03-13T02:09:01.314Z,7.2
2024-03-13T02:10:02.311Z,7.2
2024-03-13T02:11:01.413Z,7.2
2024-03-13T02:12:03.452Z,7.1
2024-03-13T02:13:02.154Z,7.2
2024-03-13T02:14:02.322Z,7.2
2024-03-13T02:15:01.948Z,7.1
2024-03-13T02:16:01.769Z,7.2
2024-03-13T02:17:01.606Z,7.1
2024-03-13T02:18:04.227Z,7.2
2024-03-13T02:19:01.469Z,7.2
2024-03-13T02:20:01.488Z,7.2
2024-03-13T02:21:01.433Z,7.1
2024-03-13T02:22:02.721Z,7.2
2024-03-13T02:23:01.500Z,7.1
2024-03-13T02:24:02.402Z,7.2
2024-03-13T02:25:02.168Z,7.2
2024-03-13T02:26:02.011Z,7.2
2024-03-13T02:27:01.917Z,7.2
2024-03-13T02:28:01.842Z,7.2
2024-03-13T02:29:02.239Z,7.2
2024-03-13T02:30:01.955Z,7.2
2024-03-13T02:31:02.684Z,7.2
2024-03-13T02:32:01.758Z,7.2
2024-03-13T02:33:01.832Z,7.2
2024-03-13T02:34:01.657Z,7.3
2024-03-13T02:35:01.684Z,7.2
2024-03-13T02:36:01.567Z,7.2
2024-03-13T02:37:01.688Z,7.3
2024-03-13T02:38:01.844Z,7.3
2024-03-13T02:39:01.838Z,7.3
2024-03-13T02:40:01.872Z,7.3
2024-03-13T02:41:01.838Z,7.3
2024-03-13T02:42:01.662Z,7.3
2024-03-13T02:43:01.854Z,7.2
2024-03-13T02:44:01.572Z,7.3
2024-03-13T02:45:02.028Z,7.3
2024-03-13T02:46:01.693Z,7.3
2024-03-13T02:47:01.792Z,7.4
2024-03-13T02:48:01.679Z,7.3
2024-03-13T02:49:01.592Z,7.3
2024-03-13T02:50:01.453Z,7.2
2024-03-13T02:51:01.330Z,7.3
2024-03-13T02:52:02.915Z,7.4
2024-03-13T02:53:01.609Z,7.3
2024-03-13T02:54:02.357Z,7.3
2024-03-13T02:55:01.333Z,7.3
2024-03-13T02:56:02.702Z,7.3
2024-03-13T02:57:01.430Z,7.3
2024-03-13T02:58:03.154Z,7.4
2024-03-13T02:59:01.944Z,7.4
2024-03-13T03:00:02.446Z,7.4
2024-03-13T03:01:02.353Z,7.3
2024-03-13T03:02:03.234Z,7.3
2024-03-13T03:03:01.727Z,7.3
2024-03-13T03:04:01.802Z,7.3
2024-03-13T03:05:01.522Z,7.4
2024-03-13T03:06:02.400Z,7.4
2024-03-13T03:07:02.261Z,7.4
2024-03-13T03:08:02.407Z,7.4
2024-03-13T03:09:02.212Z,7.4
2024-03-13T03:10:02.364Z,7.4
2024-03-13T03:11:03.161Z,7.4
2024-03-13T03:12:01.723Z,7.3
2024-03-13T03:13:01.940Z,7.3
2024-03-13T03:14:01.644Z,7.3
2024-03-13T03:15:02.078Z,7.3
2024-03-13T03:16:01.956Z,7.3
2024-03-13T03:17:01.428Z,7.4
2024-03-13T03:18:02.181Z,7.3
2024-03-13T03:19:02.289Z,7.3
2024-03-13T03:20:02.230Z,7.3
2024-03-13T03:21:02.041Z,7.4
2024-03-13T03:22:02.325Z,7.3
2024-03-13T03:23:02.060Z,7.3
2024-03-13T03:24:01.865Z,7.2
2024-03-13T03:25:01.970Z,7.2
2024-03-13T03:26:02.312Z,7.2
2024-03-13T03:27:02.098Z,7.2
2024-03-13T03:28:02.027Z,7.3
2024-03-13T03:29:01.746Z,7.3
2024-03-13T03:30:01.509Z,7.2
2024-03-13T03:31:01.410Z,7.2
2024-03-13T03:32:01.762Z,7.2
2024-03-13T03:33:02.477Z,7.2
2024-03-13T03:34:01.783Z,7.2
2024-03-13T03:35:01.818Z,7.2
2024-03-13T03:36:01.661Z,7.2
2024-03-13T03:37:01.452Z,7.3
2024-03-13T03:38:02.627Z,7.3
2024-03-13T03:39:02.344Z,7.3
2024-03-13T03:40:02.217Z,7.2
2024-03-13T03:41:02.257Z,7.2
2024-03-13T03:42:01.888Z,7.2
2024-03-13T03:43:02.024Z,7.2
2024-03-13T03:44:01.748Z,7.2
2024-03-13T03:45:02.232Z,7.2
2024-03-13T03:46:01.986Z,7.3
2024-03-13T03:47:01.836Z,7.2
2024-03-13T03:48:07.105Z,7.2
2024-03-13T03:49:01.644Z,7.2
2024-03-13T03:50:02.160Z,7.3
2024-03-13T03:51:02.119Z,7.3
2024-03-13T03:52:01.531Z,7.3
2024-03-13T03:53:01.676Z,7.4
2024-03-13T03:54:01.341Z,7.4
2024-03-13T03:55:01.488Z,7.4
2024-03-13T03:56:02.498Z,7.4
2024-03-13T03:57:02.275Z,7.4
2024-03-13T03:58:02.153Z,7.4
2024-03-13T03:59:01.938Z,7.4
2024-03-13T04:00:02.067Z,7.4
2024-03-13T04:01:02.188Z,7.4
2024-03-13T04:02:02.739Z,7.3
2024-03-13T04:03:01.854Z,7.3
2024-03-13T04:04:01.993Z,7.4
2024-03-13T04:05:01.691Z,7.3
2024-03-13T04:06:01.448Z,7.3
2024-03-13T04:07:01.552Z,7.3
2024-03-13T04:08:01.387Z,7.3
2024-03-13T04:09:01.346Z,7.3
2024-03-13T04:10:02.165Z,7.3
2024-03-13T04:11:02.058Z,7.3
2024-03-13T04:12:01.963Z,7.3
2024-03-13T04:13:02.156Z,7.3
2024-03-13T04:14:01.989Z,7.3
2024-03-13T04:15:01.977Z,7.3
2024-03-13T04:16:01.756Z,7.3
2024-03-13T04:17:01.813Z,7.3
2024-03-13T04:18:01.638Z,7.2
2024-03-13T04:19:01.739Z,7.2
2024-03-13T04:20:01.498Z,7.3
2024-03-13T04:21:01.568Z,7.3
2024-03-13T04:22:02.506Z,7.3
2024-03-13T04:23:01.295Z,7.2
2024-03-13T04:24:02.354Z,7.3
2024-03-13T04:25:02.026Z,7.3
2024-03-13T04:26:02.357Z,7.3
2024-03-13T04:27:01.244Z,7.2
2024-03-13T04:28:02.306Z,7.2
2024-03-13T04:29:02.024Z,7.3
2024-03-13T04:30:02.159Z,7.2
2024-03-13T04:31:01.907Z,7.3
2024-03-13T04:32:01.518Z,7.3
2024-03-13T04:33:01.770Z,7.3
2024-03-13T04:34:01.622Z,7.2
2024-03-13T04:35:01.693Z,7.2
2024-03-13T04:36:01.597Z,7.3
2024-03-13T04:37:01.382Z,7.3
2024-03-13T04:38:02.621Z,7.3
2024-03-13T04:39:02.272Z,7.2
2024-03-13T04:40:02.257Z,7.3
2024-03-13T04:41:02.518Z,7.3
2024-03-13T04:42:02.201Z,7.2
2024-03-13T04:43:02.337Z,7.2
2024-03-13T04:44:02.122Z,7.2
2024-03-13T04:45:02.588Z,7.3
2024-03-13T04:46:01.329Z,7.3
2024-03-13T04:47:01.773Z,7.2
2024-03-13T04:48:01.574Z,7.2
2024-03-13T04:49:01.423Z,7.2
2024-03-13T04:50:02.215Z,7.2
2024-03-13T04:51:02.117Z,7.2
2024-03-13T04:52:02.440Z,7.3
2024-03-13T04:53:02.285Z,7.2
2024-03-13T04:54:01.922Z,7.3
2024-03-13T04:55:02.062Z,7.2
2024-03-13T04:56:01.837Z,7.3
2024-03-13T04:57:01.856Z,7.3
2024-03-13T04:58:01.717Z,7.2
2024-03-13T04:59:01.566Z,7.1
2024-03-13T05:00:02.378Z,7.2
2024-03-13T05:01:02.295Z,7.2
2024-03-13T05:02:01.544Z,7.3
2024-03-13T05:03:01.703Z,7.3
2024-03-13T05:04:01.529Z,7.3
2024-03-13T05:05:01.427Z,7.2
2024-03-13T05:06:02.093Z,7.2
2024-03-13T05:07:02.219Z,7.2
2024-03-13T05:08:03.084Z,7.2
2024-03-13T05:09:01.658Z,7.2
2024-03-13T05:10:01.500Z,7.2
2024-03-13T05:11:01.548Z,7.2
2024-03-13T05:12:01.822Z,7.3
2024-03-13T05:13:01.468Z,7.2
2024-03-13T05:14:02.707Z,7.2
2024-03-13T05:15:01.352Z,7.2
2024-03-13T05:16:02.492Z,7.2
2024-03-13T05:17:02.357Z,7.2
2024-03-13T05:18:02.029Z,7.2
2024-03-13T05:19:02.165Z,7.2
2024-03-13T05:20:02.031Z,7.3
2024-03-13T05:21:01.968Z,7.2
2024-03-13T05:22:02.365Z,7.3
2024-03-13T05:23:02.243Z,7.2
2024-03-13T05:24:01.862Z,7.2
2024-03-13T05:25:02.314Z,7.3
2024-03-13T05:26:02.098Z,7.3
2024-03-13T05:27:02.221Z,7.3
2024-03-13T05:28:01.998Z,7.3
2024-03-13T05:29:02.127Z,7.3
2024-03-13T05:30:01.868Z,7.3
2024-03-13T05:31:02.190Z,7.3
2024-03-13T05:32:01.281Z,7.3
2024-03-13T05:33:01.726Z,7.3
2024-03-13T05:34:01.573Z,7.2
2024-03-13T05:35:02.093Z,7.3
2024-03-13T05:36:01.865Z,7.4
2024-03-13T05:37:02.238Z,7.3
2024-03-13T05:38:02.694Z,7.3
2024-03-13T05:39:01.400Z,7.3
2024-03-13T05:40:02.141Z,7.3
2024-03-13T05:41:02.677Z,7.3
2024-03-13T05:42:01.343Z,7.3
2024-03-13T05:43:02.906Z,7.3
2024-03-13T05:44:01.768Z,7.3
2024-03-13T05:45:02.877Z,7.3
2024-03-13T05:46:01.639Z,7.2
2024-03-13T05:47:01.878Z,7.3
2024-03-13T05:48:02.006Z,7.3
2024-03-13T05:49:01.786Z,7.3
2024-03-13T05:50:01.679Z,7.3
2024-03-13T05:51:01.831Z,7.3
2024-03-13T05:52:01.441Z,7.3
2024-03-13T05:53:02.244Z,7.2
2024-03-13T05:54:01.925Z,7.3
2024-03-13T05:55:02.642Z,7.3
2024-03-13T05:56:01.606Z,7.3
2024-03-13T05:57:01.861Z,7.3
2024-03-13T05:58:01.560Z,7.3
2024-03-13T05:59:02.000Z,7.2
2024-03-13T06:00:03.566Z,7.2
2024-03-13T06:01:01.412Z,7.3
2024-03-13T06:02:01.976Z,7.3
2024-03-13T06:03:02.563Z,7.2
2024-03-13T06:04:02.245Z,7.3
2024-03-13T06:05:02.435Z,7.2
2024-03-13T06:06:02.108Z,7.2
2024-03-13T06:07:02.592Z,7.1
2024-03-13T06:08:01.509Z,7.2
2024-03-13T06:09:01.769Z,7.1
2024-03-13T06:10:01.453Z,7.2
2024-03-13T06:11:01.494Z,7.2
2024-03-13T06:12:01.305Z,7.2
2024-03-13T06:13:01.385Z,7.3
2024-03-13T06:14:02.543Z,7.3
2024-03-13T06:15:01.289Z,7.2
2024-03-13T06:16:02.116Z,7.2
2024-03-13T06:17:01.995Z,7.2
2024-03-13T06:18:02.118Z,7.2
2024-03-13T06:19:02.324Z,7.2
2024-03-13T06:20:02.139Z,7.1
2024-03-13T06:21:02.107Z,7.1
2024-03-13T06:22:02.329Z,7.2
2024-03-13T06:23:02.175Z,7.1
2024-03-13T06:24:02.108Z,7.2
2024-03-13T06:25:01.808Z,7.2
2024-03-13T06:26:01.345Z,7.2
2024-03-13T06:27:01.470Z,7.2
2024-03-13T06:28:01.301Z,7.2
2024-03-13T06:29:02.468Z,7.2
2024-03-13T06:30:02.104Z,7.2
2024-03-13T06:31:02.200Z,7.3
2024-03-13T06:32:01.865Z,7.3
2024-03-13T06:33:02.352Z,7.2
2024-03-13T06:34:02.113Z,7.2
2024-03-13T06:35:02.341Z,7.2
2024-03-13T06:36:02.195Z,7.1
2024-03-13T06:37:02.598Z,7.2
2024-03-13T06:38:01.381Z,7.2
2024-03-13T06:39:01.537Z,7.2
2024-03-13T06:40:02.569Z,7.2
2024-03-13T06:41:01.452Z,7.2
2024-03-13T06:42:02.244Z,7.2
2024-03-13T06:43:02.210Z,7.1
2024-03-13T06:44:01.980Z,7.2
2024-03-13T06:45:01.883Z,7.3
2024-03-13T06:46:01.744Z,7.1
2024-03-13T06:47:02.118Z,7.2
2024-03-13T06:48:01.903Z,7.2
2024-03-13T06:49:01.960Z,7.2
2024-03-13T06:50:01.854Z,7.3
2024-03-13T06:51:01.896Z,7.3
2024-03-13T06:52:01.590Z,7.3
2024-03-13T06:53:01.965Z,7.3
2024-03-13T06:54:01.617Z,7.3
2024-03-13T06:55:01.973Z,7.3
2024-03-13T06:56:01.839Z,7.2
2024-03-13T06:57:01.862Z,7.3
2024-03-13T06:58:02.165Z,7.3
2024-03-13T06:59:01.930Z,7.3
2024-03-13T07:00:02.633Z,7.4
2024-03-13T07:01:01.846Z,7.3
2024-03-13T07:02:01.822Z,7.3
2024-03-13T07:03:01.893Z,7.4
2024-03-13T07:04:01.673Z,7.4
2024-03-13T07:05:01.531Z,7.4
2024-03-13T07:06:02.409Z,7.3
2024-03-13T07:07:02.255Z,7.2
2024-03-13T07:08:02.105Z,7.3
2024-03-13T07:09:02.049Z,7.3
2024-03-13T07:10:01.926Z,7.2
2024-03-13T07:11:01.996Z,7.2
2024-03-13T07:12:01.749Z,7.3
2024-03-13T07:13:01.840Z,7.3
2024-03-13T07:14:01.585Z,7.4
2024-03-13T07:15:01.543Z,7.3
2024-03-13T07:16:02.233Z,7.4
2024-03-13T07:17:02.035Z,7.4
2024-03-13T07:18:01.980Z,7.4
2024-03-13T07:19:01.863Z,7.5
2024-03-13T07:20:01.672Z,7.5
2024-03-13T07:21:01.685Z,7.5
2024-03-13T07:22:01.337Z,7.4
2024-03-13T07:23:01.368Z,7.4
2024-03-13T07:24:01.987Z,7.4
2024-03-13T07:25:01.980Z,7.3
2024-03-13T07:26:01.797Z,7.4
2024-03-13T07:27:01.768Z,7.4
2024-03-13T07:28:01.512Z,7.3
2024-03-13T07:29:01.598Z,7.4
2024-03-13T07:30:01.326Z,7.4
2024-03-13T07:31:01.321Z,7.4
2024-03-13T07:32:02.899Z,7.4
2024-03-13T07:33:01.625Z,7.4
2024-03-13T07:34:01.826Z,7.4
2024-03-13T07:35:01.639Z,7.5
2024-03-13T07:36:01.403Z,7.5
2024-03-13T07:37:01.303Z,7.5
2024-03-13T07:38:02.500Z,7.5
2024-03-13T07:39:02.324Z,7.5
2024-03-13T07:40:02.526Z,7.5
2024-03-13T07:41:01.482Z,7.4
2024-03-13T07:42:02.243Z,7.4
2024-03-13T07:43:02.174Z,7.5
2024-03-13T07:44:02.134Z,7.3
2024-03-13T07:45:01.899Z,7.5
2024-03-13T07:46:01.751Z,7.5
2024-03-13T07:47:01.644Z,7.4
2024-03-13T07:48:01.426Z,7.4
2024-03-13T07:49:01.309Z,7.2
2024-03-13T07:50:02.298Z,7.4
2024-03-13T07:51:02.075Z,7.3
2024-03-13T07:52:01.800Z,7.4
2024-03-13T07:53:01.983Z,7.3
2024-03-13T07:54:01.671Z,7.3
2024-03-13T07:55:01.847Z,7.3
2024-03-13T07:56:03.482Z,7.3
2024-03-13T07:57:01.814Z,7.3
2024-03-13T07:58:01.754Z,7.3
2024-03-13T07:59:01.505Z,7.2
2024-03-13T08:00:02.718Z,7.3
2024-03-13T08:01:01.683Z,7.3
2024-03-13T08:02:01.731Z,7.2
2024-03-13T08:03:01.779Z,7.3
2024-03-13T08:04:01.411Z,7.3
2024-03-13T08:05:01.438Z,7.3
2024-03-13T09:06:02.635Z,8.1
2024-03-13T09:07:02.811Z,8.2
2024-03-13T09:08:01.528Z,8.1
2024-03-13T09:09:01.602Z,8.1
2024-03-13T09:10:02.740Z,8
2024-03-13T09:11:01.447Z,8.1
2024-03-13T09:12:01.600Z,8.1
2024-03-13T09:13:02.091Z,8.1
2024-03-13T09:14:01.533Z,7.9
2024-03-13T09:15:01.726Z,8
2024-03-13T09:16:01.705Z,7.9
2024-03-13T09:17:01.932Z,8
2024-03-13T09:18:01.705Z,7.9
2024-03-13T09:19:01.635Z,8.2
2024-03-13T09:20:01.786Z,8.2
2024-03-13T09:21:02.240Z,8.1
2024-03-13T09:22:02.510Z,8
2024-03-13T09:23:01.542Z,8
2024-03-13T09:24:02.459Z,8
2024-03-13T09:25:02.240Z,8.1
2024-03-13T09:26:02.080Z,8.1
2024-03-13T09:27:01.921Z,8.1
2024-03-13T09:28:01.777Z,8
2024-03-13T09:29:01.944Z,8
2024-03-13T09:30:01.682Z,8.1
2024-03-13T09:31:01.737Z,8.2
2024-03-13T09:32:01.483Z,8.1
2024-03-13T09:33:01.641Z,8.2
2024-03-13T09:34:01.502Z,8.1
2024-03-13T09:35:01.989Z,8.1
2024-03-13T09:36:01.637Z,8.1
2024-03-13T09:37:01.992Z,8.1
2024-03-13T09:38:01.768Z,8.2
2024-03-13T09:39:01.735Z,8.1
2024-03-13T09:40:01.911Z,8.2
2024-03-13T09:41:02.122Z,8.1
2024-03-13T09:42:01.832Z,8.1
2024-03-13T09:43:02.034Z,8.1
2024-03-13T09:44:01.841Z,8.1
2024-03-13T09:45:01.657Z,8
2024-03-13T09:46:01.851Z,7.9
2024-03-13T09:47:01.441Z,7.9
2024-03-13T09:48:02.200Z,7.9
2024-03-13T09:49:02.169Z,7.9
2024-03-13T09:50:01.947Z,7.9
2024-03-13T09:51:03.720Z,7.9
2024-03-13T09:52:02.221Z,8
2024-03-13T09:53:02.664Z,8.1
2024-03-13T09:54:01.332Z,8
2024-03-13T09:55:01.487Z,8.1
2024-03-13T09:56:02.383Z,8
2024-03-13T09:57:02.214Z,8.1
2024-03-13T09:58:02.110Z,8.2
2024-03-13T09:59:01.963Z,8.1
2024-03-13T10:00:01.855Z,8.1
2024-03-13T10:01:01.861Z,8.2
2024-03-13T10:02:01.658Z,8.2
2024-03-13T10:03:01.792Z,8.2
2024-03-13T10:04:01.501Z,8.2
2024-03-13T10:05:01.690Z,8.3
2024-03-13T10:06:01.555Z,8.4
2024-03-13T10:07:01.590Z,8.3
2024-03-13T10:08:02.401Z,8.4
2024-03-13T10:09:02.291Z,8.4
2024-03-13T10:10:02.211Z,8.4
2024-03-13T10:11:02.061Z,8.5
2024-03-13T10:12:02.100Z,8.5
2024-03-13T10:13:02.449Z,8.6
2024-03-13T10:14:02.296Z,8.6
2024-03-13T10:15:02.742Z,8.6
2024-03-13T10:16:01.610Z,8.6
2024-03-13T10:17:04.315Z,8.6
2024-03-13T10:18:02.270Z,8.7
2024-03-13T10:19:01.639Z,8.7
2024-03-13T10:20:01.584Z,8.7
2024-03-13T10:21:01.474Z,8.7
2024-03-13T10:22:01.549Z,8.6
2024-03-13T10:23:01.330Z,8.4
2024-03-13T10:24:03.705Z,8.3
2024-03-13T10:25:01.527Z,8.3
2024-03-13T10:26:02.341Z,8.4
2024-03-13T10:27:02.217Z,8.5
2024-03-13T10:28:02.485Z,8.5
2024-03-13T10:29:02.213Z,8.5
2024-03-13T10:30:01.917Z,8.5
2024-03-13T10:31:01.942Z,8.5
2024-03-13T10:32:01.854Z,8.5
2024-03-13T10:33:01.911Z,8.5
2024-03-13T10:34:02.068Z,8.5
2024-03-13T10:35:02.716Z,8.5
2024-03-13T10:36:02.163Z,8.5
2024-03-13T10:37:07.937Z,8.6
2024-03-13T10:38:02.254Z,8.5
2024-03-13T10:39:02.429Z,8.6
2024-03-13T10:40:02.244Z,8.6
2024-03-13T10:41:02.650Z,8.6
2024-03-13T10:42:01.416Z,8.5
2024-03-13T10:43:02.046Z,8.6
2024-03-13T10:44:01.867Z,8.6
2024-03-13T10:45:01.759Z,8.7
2024-03-13T10:46:01.669Z,8.9
2024-03-13T10:47:02.895Z,8.9
2024-03-13T10:48:01.868Z,9
2024-03-13T10:49:01.939Z,9.1
2024-03-13T10:50:01.969Z,9
2024-03-13T10:51:02.070Z,9.1
2024-03-13T10:52:02.066Z,9
2024-03-13T10:53:02.952Z,9
2024-03-13T10:54:02.071Z,9.2
2024-03-13T10:55:02.168Z,9.1
2024-03-13T10:56:01.851Z,9.1
2024-03-13T10:57:01.914Z,9.1
2024-03-13T10:58:01.943Z,9
2024-03-13T10:59:03.452Z,9.2
2024-03-13T11:00:02.056Z,9.3
2024-03-13T11:01:02.232Z,9.4
2024-03-13T11:02:01.603Z,9.4
2024-03-13T11:03:01.622Z,9.6
2024-03-13T11:04:01.488Z,9.6
2024-03-13T11:05:02.746Z,9.8
2024-03-13T11:06:02.006Z,9.9
2024-03-13T11:07:02.013Z,10.1
2024-03-13T11:08:01.668Z,10.4
2024-03-13T11:09:01.803Z,10.3
2024-03-13T11:10:01.882Z,10.4
2024-03-13T11:11:06.934Z,10.7
2024-03-13T11:12:01.734Z,11
2024-03-13T11:13:01.720Z,10.9
2024-03-13T11:14:01.469Z,11.2
2024-03-13T11:15:01.588Z,11.1
2024-03-13T11:16:01.553Z,10.8
2024-03-13T11:17:01.320Z,10.7
2024-03-13T11:18:02.036Z,10.9
2024-03-13T11:19:01.425Z,10.9
2024-03-13T11:20:01.512Z,10.9
2024-03-13T11:21:01.518Z,11.1
2024-03-13T11:22:03.619Z,11.3
2024-03-13T11:23:01.379Z,11.5
2024-03-13T11:24:02.114Z,11.6
2024-03-13T11:25:02.116Z,11.4
2024-03-13T11:26:01.760Z,11.2
2024-03-13T11:27:01.855Z,11
2024-03-13T11:28:01.564Z,10.8
2024-03-13T11:29:01.541Z,10.8
2024-03-13T11:30:02.275Z,10.8
2024-03-13T11:31:02.308Z,10.7
2024-03-13T11:32:02.000Z,10.2
2024-03-13T11:33:02.013Z,10.6
2024-03-13T11:34:01.948Z,10.7
2024-03-13T11:35:01.883Z,10.9
2024-03-13T11:36:01.569Z,10.9
2024-03-13T11:37:01.649Z,11
2024-03-13T11:38:02.686Z,11.1
2024-03-13T11:39:01.824Z,10.9
2024-03-13T11:40:01.587Z,11.2
2024-03-13T11:41:01.609Z,11
2024-03-13T11:42:01.361Z,10.9
2024-03-13T11:43:01.286Z,11
2024-03-13T11:44:02.022Z,11.1
2024-03-13T11:45:02.085Z,11.2
2024-03-13T11:46:01.922Z,11.1
2024-03-13T11:47:01.889Z,10.8
2024-03-13T11:48:01.658Z,10.9
2024-03-13T11:49:02.073Z,10.8
2024-03-13T11:50:02.182Z,11
2024-03-13T11:51:02.354Z,11.1
2024-03-13T11:52:01.466Z,11.2
2024-03-13T11:53:01.428Z,11.2
2024-03-13T11:54:02.370Z,11.2
2024-03-13T11:55:01.287Z,11.1
2024-03-13T11:56:01.987Z,11.3
2024-03-13T11:57:02.043Z,11.2
2024-03-13T11:58:01.864Z,11.4
2024-03-13T11:59:01.854Z,11.2
2024-03-13T12:00:02.311Z,11.2
2024-03-13T12:01:01.399Z,11.1
2024-03-13T12:02:01.724Z,10.9
2024-03-13T12:03:01.665Z,11.1
2024-03-13T12:04:01.407Z,11
2024-03-13T12:05:01.396Z,10.9
2024-03-13T12:06:02.082Z,11
2024-03-13T12:07:02.074Z,11.1
2024-03-13T12:08:01.736Z,11.2
2024-03-13T12:09:01.721Z,11
2024-03-13T12:10:01.476Z,11.2
2024-03-13T12:11:01.484Z,11.3
2024-03-13T12:12:01.537Z,11.1
2024-03-13T12:13:01.387Z,11.3
2024-03-13T12:14:02.009Z,11.3
2024-03-13T12:15:02.102Z,11.3
2024-03-13T12:16:02.131Z,11
2024-03-13T12:17:01.888Z,11.1
2024-03-13T12:18:01.627Z,11.3
2024-03-13T12:19:01.782Z,11.3
2024-03-13T12:20:01.575Z,10.9
2024-03-13T12:21:01.589Z,11.2
2024-03-13T12:22:01.612Z,11.1
2024-03-13T12:23:01.427Z,11.2
2024-03-13T12:24:02.103Z,11.4
2024-03-13T12:25:02.083Z,11.5
2024-03-13T12:26:01.711Z,11.6
2024-03-13T12:27:01.844Z,11.4
2024-03-13T12:28:01.601Z,11.5
2024-03-13T12:29:01.532Z,11.4
2024-03-13T12:30:02.283Z,11.3
2024-03-13T12:31:02.245Z,11.4
2024-03-13T12:32:01.535Z,11.5
2024-03-13T12:33:01.513Z,11.3
2024-03-13T12:34:02.243Z,11.3
2024-03-13T12:35:01.569Z,11.2
2024-03-13T12:36:02.519Z,11.1
2024-03-13T12:37:01.421Z,11.1
2024-03-13T12:38:02.203Z,11.2
2024-03-13T12:39:02.302Z,11.2
2024-03-13T12:40:02.226Z,11.2
2024-03-13T12:41:02.045Z,11.3
2024-03-13T12:42:01.798Z,11.5
2024-03-13T12:43:01.931Z,11.6
2024-03-13T12:44:01.552Z,11.5
2024-03-13T12:45:01.638Z,11.4
2024-03-13T12:46:01.648Z,11.5
2024-03-13T12:47:01.492Z,11.8
2024-03-13T12:48:02.749Z,12
2024-03-13T12:49:01.927Z,11.9
2024-03-13T12:50:01.917Z,12.6
2024-03-13T12:51:01.853Z,12.6
2024-03-13T12:52:01.429Z,12.4
2024-03-13T12:53:01.660Z,12.2
2024-03-13T12:54:01.334Z,12.4
2024-03-13T12:55:01.511Z,12.7
2024-03-13T12:56:02.650Z,13.1
2024-03-13T12:57:01.337Z,13
2024-03-13T12:58:02.391Z,13.2
2024-03-13T12:59:02.192Z,13.3
2024-03-13T13:00:01.921Z,13.4
2024-03-13T13:01:01.769Z,13.3
2024-03-13T13:02:01.549Z,13.4
2024-03-13T13:03:01.860Z,13.3
2024-03-13T13:04:02.553Z,13.7
2024-03-13T13:05:02.200Z,14.3
2024-03-13T13:06:02.007Z,14.5
2024-03-13T13:07:01.985Z,14.8
2024-03-13T13:08:01.696Z,14.9
2024-03-13T13:09:02.154Z,14.7
2024-03-13T13:10:02.063Z,14.6
2024-03-13T13:11:02.135Z,14.5
2024-03-13T13:12:02.390Z,14.3
2024-03-13T13:13:02.146Z,14.2
2024-03-13T13:14:02.063Z,13.8
2024-03-13T13:15:01.780Z,13.6
2024-03-13T13:16:01.937Z,13.7
2024-03-13T13:17:01.330Z,14.2
2024-03-13T13:18:02.238Z,14.3
2024-03-13T13:19:02.268Z,14.1
2024-03-13T13:20:02.867Z,13.9
2024-03-13T13:21:01.467Z,14.3
2024-03-13T13:22:02.201Z,14.3
2024-03-13T13:23:02.278Z,14.5
2024-03-13T13:24:02.086Z,14.2
2024-03-13T13:25:01.898Z,14.6
2024-03-13T13:26:01.759Z,14.9
2024-03-13T13:27:01.867Z,15
2024-03-13T13:28:01.795Z,15.3
2024-03-13T13:30:01.941Z,15.3
2024-03-13T13:31:02.325Z,15.6
2024-03-13T13:32:01.800Z,15.5
2024-03-13T13:33:01.938Z,16
2024-03-13T13:34:01.744Z,15.7
2024-03-13T13:35:02.028Z,15.2
2024-03-13T13:36:01.843Z,15.4
2024-03-13T13:37:01.698Z,15.6
2024-03-13T13:38:01.774Z,16.1
2024-03-13T13:39:01.419Z,16.2
2024-03-13T13:40:02.391Z,15.8
2024-03-13T13:41:02.177Z,15.9
2024-03-13T13:42:01.915Z,16.2
2024-03-13T13:43:01.906Z,16.5
2024-03-13T13:44:02.048Z,16.1
2024-03-13T13:45:02.270Z,15.9
2024-03-13T13:46:02.338Z,15.9
2024-03-13T13:47:01.767Z,15.8
2024-03-13T13:48:01.530Z,15.4
2024-03-13T13:49:02.509Z,15.6
2024-03-13T13:50:01.874Z,15.6
2024-03-13T13:51:02.734Z,15.5
2024-03-13T13:52:01.652Z,15.3
2024-03-13T13:53:01.804Z,15.4
2024-03-13T13:54:01.603Z,15.2
2024-03-13T13:55:02.554Z,14.8
2024-03-13T13:56:01.287Z,15.1
2024-03-13T13:57:01.509Z,14.6
2024-03-13T13:58:02.534Z,15
2024-03-13T13:59:02.253Z,14.4
2024-03-13T14:00:02.012Z,14.3
2024-03-13T14:01:01.897Z,14.4
2024-03-13T14:02:01.780Z,14
2024-03-13T14:03:02.016Z,13.9
2024-03-13T14:04:01.861Z,13.7
2024-03-13T14:05:01.832Z,13.7
2024-03-13T14:06:01.753Z,13.6
2024-03-13T14:07:01.571Z,13.3
2024-03-13T14:08:02.700Z,13
2024-03-13T14:09:01.404Z,12.9
2024-03-13T14:10:02.344Z,13.3
2024-03-13T14:11:02.251Z,13.1
2024-03-13T14:12:02.227Z,12.9
2024-03-13T14:13:02.198Z,12.5
2024-03-13T14:14:01.887Z,12.6
2024-03-13T14:15:01.850Z,12.7
2024-03-13T14:16:01.857Z,12.7
2024-03-13T14:17:02.222Z,12.6
2024-03-13T14:18:01.968Z,12.5
2024-03-13T14:19:02.127Z,12.5
2024-03-13T14:20:01.727Z,12.3
2024-03-13T14:21:02.379Z,12.3
2024-03-13T14:22:02.249Z,12.4
2024-03-13T14:23:02.403Z,12.3
2024-03-13T14:24:02.080Z,12.4
2024-03-13T14:25:02.182Z,12.4
2024-03-13T14:26:01.819Z,12.3
2024-03-13T14:27:01.928Z,12.4
2024-03-13T14:28:01.746Z,12.3
2024-03-13T14:29:01.959Z,12.3
2024-03-13T14:30:01.841Z,12.3
2024-03-13T14:31:02.074Z,12.2
2024-03-13T14:32:01.593Z,12
2024-03-13T14:33:01.709Z,12
2024-03-13T14:34:01.648Z,12
2024-03-13T14:35:06.097Z,12.1
2024-03-13T14:36:02.221Z,12
2024-03-13T14:37:02.857Z,11.9
2024-03-13T14:38:01.574Z,11.9
2024-03-13T14:39:02.066Z,11.8
2024-03-13T14:40:01.805Z,11.9
2024-03-13T14:41:01.790Z,11.7
2024-03-13T14:42:01.588Z,11.7